createdAt,value
2019-02-06T00:01:33.195Z,21.00
2019-02-06T00:04:01.343Z,19.30
2019-02-06T00:06:29.507Z,21.47
2019-02-06T00:08:59.371Z,19.17
2019-02-06T00:11:27.752Z,24.03
2019-02-06T00:13:55.974Z,16.50
2019-02-06T00:16:24.206Z,16.87
2019-02-06T00:18:52.421Z,21.83
2019-02-06T00:21:20.813Z,18.20
2019-02-06T00:23:49.776Z,16.57
2019-02-06T00:26:17.887Z,18.90
2019-02-06T00:28:46.005Z,19.43
2019-02-06T00:31:14.205Z,19.77
2019-02-06T00:33:42.397Z,16.47
2019-02-06T00:36:10.621Z,15.45
2019-02-06T00:38:38.800Z,16.33
2019-02-06T00:41:07.365Z,16.30
2019-02-06T00:43:35.548Z,16.37
2019-02-06T00:46:03.897Z,14.33
2019-02-06T00:48:32.199Z,16.23
2019-02-06T00:51:03.559Z,14.80
2019-02-06T00:53:31.825Z,15.43
2019-02-06T00:56:00.041Z,15.10
2019-02-06T00:58:28.387Z,15.40
2019-02-06T01:00:56.699Z,14.63
2019-02-06T01:03:26.488Z,13.53
2019-02-06T01:05:54.645Z,15.10
2019-02-06T01:08:27.502Z,15.00
2019-02-06T01:10:52.785Z,14.83
2019-02-06T01:13:21.198Z,14.70
2019-02-06T01:15:49.393Z,15.30
2019-02-06T01:18:17.554Z,16.07
2019-02-06T01:20:45.664Z,15.10
2019-02-06T01:23:16.255Z,16.27
2019-02-06T01:25:43.681Z,14.55
2019-02-06T01:28:11.815Z,14.27
2019-02-06T01:30:41.934Z,15.20
2019-02-06T01:33:10.031Z,18.03
2019-02-06T01:35:49.273Z,17.33
2019-02-06T01:38:08.064Z,18.57
2019-02-06T01:40:36.171Z,18.93
2019-02-06T01:43:04.467Z,14.23
2019-02-06T01:45:32.617Z,16.77
2019-02-06T01:48:00.870Z,14.90
2019-02-06T01:50:30.239Z,14.20
2019-02-06T01:52:59.203Z,14.27
2019-02-06T01:55:27.463Z,17.17
2019-02-06T01:57:55.770Z,13.57
2019-02-06T02:00:24.359Z,13.93
2019-02-06T02:02:52.869Z,14.77
2019-02-06T02:05:21.920Z,15.13
2019-02-06T02:07:50.678Z,13.23
2019-02-06T02:10:19.724Z,15.80
2019-02-06T02:12:47.951Z,16.17
2019-02-06T02:15:17.567Z,14.47
2019-02-06T02:17:45.678Z,15.23
2019-02-06T02:20:20.962Z,15.57
2019-02-06T02:22:49.164Z,15.93
2019-02-06T02:25:17.772Z,14.63
2019-02-06T02:27:45.973Z,13.87
2019-02-06T02:30:15.772Z,15.77
2019-02-06T02:32:44.015Z,14.58
2019-02-06T02:35:12.126Z,14.33
2019-02-06T02:37:42.768Z,12.17
2019-02-06T02:40:15.170Z,12.63
2019-02-06T02:42:42.160Z,14.77
2019-02-06T02:45:12.192Z,13.75
2019-02-06T02:47:41.119Z,16.27
2019-02-06T02:50:10.861Z,14.58
2019-02-06T02:52:40.739Z,16.23
2019-02-06T02:55:10.595Z,13.78
2019-02-06T02:57:38.838Z,15.60
2019-02-06T03:00:15.224Z,15.23
2019-02-06T03:02:48.299Z,13.73
2019-02-06T03:05:17.096Z,15.53
2019-02-06T03:07:45.232Z,15.70
2019-02-06T03:10:13.532Z,17.60
2019-02-06T03:12:41.685Z,12.57
2019-02-06T03:15:10.202Z,14.77
2019-02-06T03:17:39.681Z,17.67
2019-02-06T03:20:10.110Z,13.37
2019-02-06T03:22:38.248Z,13.90
2019-02-06T03:25:07.828Z,16.07
2019-02-06T03:27:39.714Z,14.47
2019-02-06T03:30:12.115Z,13.37
2019-02-06T03:32:40.280Z,16.37
2019-02-06T03:35:08.556Z,13.65
2019-02-06T03:37:36.736Z,12.65
2019-02-06T03:40:06.336Z,15.77
2019-02-06T03:42:35.219Z,14.50
2019-02-06T03:45:04.049Z,14.83
2019-02-06T03:47:33.249Z,16.00
2019-02-06T03:50:01.409Z,16.03
2019-02-06T03:52:32.533Z,13.90
2019-02-06T03:55:28.510Z,14.40
2019-02-06T03:57:48.560Z,14.83
2019-02-06T04:00:17.554Z,12.87
2019-02-06T04:02:45.669Z,14.63
2019-02-06T04:05:13.977Z,13.37
2019-02-06T04:07:42.319Z,16.80
2019-02-06T04:10:11.969Z,13.18
2019-02-06T04:12:40.220Z,13.67
2019-02-06T04:15:09.064Z,13.90
2019-02-06T04:17:37.244Z,13.27
2019-02-06T04:20:06.948Z,12.27
2019-02-06T04:22:35.086Z,13.70
2019-02-06T04:25:04.751Z,13.90
2019-02-06T04:27:47.099Z,14.68
2019-02-06T04:30:02.812Z,14.00
2019-02-06T04:32:31.106Z,15.03
2019-02-06T04:34:59.356Z,13.07
2019-02-06T04:37:27.545Z,15.20
2019-02-06T04:39:56.872Z,13.77
2019-02-06T04:42:26.796Z,12.57
2019-02-06T04:45:02.171Z,15.43
2019-02-06T04:47:27.616Z,10.32
2019-02-06T04:49:55.718Z,12.80
2019-02-06T04:52:23.824Z,12.70
2019-02-06T04:54:52.033Z,14.70
2019-02-06T04:57:23.737Z,16.43
2019-02-06T04:59:51.873Z,14.75
2019-02-06T05:02:20.393Z,15.67
2019-02-06T05:04:48.521Z,13.30
2019-02-06T05:07:19.447Z,13.23
2019-02-06T05:09:48.188Z,12.80
2019-02-06T05:12:16.359Z,13.53
2019-02-06T05:14:45.228Z,14.77
2019-02-06T05:17:13.405Z,14.13
2019-02-06T05:19:41.847Z,12.90
2019-02-06T05:22:16.093Z,13.40
2019-02-06T05:24:39.933Z,15.20
2019-02-06T05:27:08.044Z,14.75
2019-02-06T05:29:36.332Z,16.97
2019-02-06T05:32:04.617Z,15.83
2019-02-06T05:34:32.723Z,14.37
2019-02-06T05:37:02.657Z,13.67
2019-02-06T05:39:30.768Z,15.57
2019-02-06T05:41:58.894Z,15.40
2019-02-06T05:44:26.994Z,15.83
2019-02-06T05:46:55.122Z,12.77
2019-02-06T05:49:23.382Z,14.45
2019-02-06T05:51:51.668Z,15.67
2019-02-06T05:54:20.244Z,13.73
2019-02-06T05:56:48.426Z,17.32
2019-02-06T05:59:16.651Z,16.23
2019-02-06T06:01:44.844Z,15.72
2019-02-06T06:04:12.973Z,14.10
2019-02-06T06:06:41.109Z,14.37
2019-02-06T06:09:09.285Z,14.13
2019-02-06T06:11:37.721Z,14.13
2019-02-06T06:14:05.897Z,20.57
2019-02-06T06:16:36.050Z,15.67
2019-02-06T06:19:03.996Z,17.12
2019-02-06T06:21:32.188Z,18.93
2019-02-06T06:24:00.305Z,15.40
2019-02-06T06:26:31.131Z,18.77
2019-02-06T06:28:59.315Z,12.80
2019-02-06T06:31:27.516Z,16.57
2019-02-06T06:33:55.759Z,14.67
2019-02-06T06:36:23.875Z,15.77
2019-02-06T06:38:52.004Z,13.93
2019-02-06T06:41:21.577Z,16.90
2019-02-06T06:43:49.750Z,18.77
2019-02-06T06:46:17.885Z,16.93
2019-02-06T06:48:46.010Z,16.87
2019-02-06T06:51:14.913Z,17.67
2019-02-06T06:53:44.502Z,16.33
2019-02-06T06:56:12.724Z,17.17
2019-02-06T06:58:42.466Z,14.87
2019-02-06T07:01:11.165Z,15.37
2019-02-06T07:03:39.415Z,16.13
2019-02-06T07:06:07.537Z,19.00
2019-02-06T07:08:35.647Z,13.93
2019-02-06T07:11:03.840Z,16.37
2019-02-06T07:13:32.248Z,14.93
2019-02-06T07:16:02.009Z,22.67
2019-02-06T07:18:30.146Z,17.83
2019-02-06T07:21:01.659Z,14.80
2019-02-06T07:23:28.181Z,14.87
2019-02-06T07:25:56.507Z,17.20
2019-02-06T07:28:24.691Z,18.60
2019-02-06T07:30:52.867Z,14.53
2019-02-06T07:33:22.886Z,12.87
2019-02-06T07:35:53.220Z,15.97
2019-02-06T07:38:24.652Z,16.83
2019-02-06T07:40:57.697Z,18.80
2019-02-06T07:43:25.591Z,15.13
2019-02-06T07:45:54.481Z,16.00
2019-02-06T07:48:22.873Z,18.80
2019-02-06T07:50:50.987Z,20.23
2019-02-06T07:53:22.087Z,17.77
2019-02-06T07:55:50.221Z,20.33
2019-02-06T07:58:18.366Z,17.53
2019-02-06T08:00:46.575Z,15.60
2019-02-06T08:03:14.796Z,15.50
2019-02-06T08:05:42.921Z,14.53
2019-02-06T08:08:11.676Z,17.13
2019-02-06T08:10:39.792Z,20.17
2019-02-06T08:13:08.579Z,15.57
2019-02-06T08:15:36.865Z,16.70
2019-02-06T08:18:05.213Z,13.60
2019-02-06T08:20:33.894Z,11.90
2019-02-06T08:23:03.803Z,13.97
2019-02-06T08:25:31.923Z,11.87
2019-02-06T08:28:00.222Z,12.10
2019-02-06T08:30:32.902Z,14.93
2019-02-06T08:33:01.135Z,15.57
2019-02-06T08:35:49.044Z,18.57
2019-02-06T08:38:17.215Z,23.53
2019-02-06T08:40:45.383Z,14.83
2019-02-06T08:43:14.990Z,17.53
2019-02-06T08:45:46.880Z,26.70
2019-02-06T08:48:17.328Z,17.63
2019-02-06T08:50:45.108Z,14.23
2019-02-06T08:53:13.291Z,14.13
2019-02-06T08:55:41.537Z,14.60
2019-02-06T08:58:19.076Z,14.73
2019-02-06T09:00:47.346Z,17.27
2019-02-06T09:03:15.444Z,12.70
2019-02-06T09:05:43.682Z,13.17
2019-02-06T09:08:11.771Z,16.00
2019-02-06T09:10:39.935Z,16.30
2019-02-06T09:13:08.730Z,13.32
2019-02-06T09:15:36.907Z,13.93
2019-02-06T09:18:05.551Z,13.87
2019-02-06T09:20:33.665Z,15.05
2019-02-06T09:23:01.816Z,12.53
2019-02-06T09:25:30.057Z,10.93
2019-02-06T09:28:00.949Z,11.40
2019-02-06T09:30:32.984Z,12.57
2019-02-06T09:33:01.319Z,12.23
2019-02-06T09:35:29.603Z,14.00
2019-02-06T09:37:57.776Z,12.00
2019-02-06T09:40:27.054Z,12.20
2019-02-06T09:42:55.363Z,14.47
2019-02-06T09:45:23.535Z,11.30
2019-02-06T09:47:53.288Z,15.50
2019-02-06T09:50:26.349Z,13.23
2019-02-06T09:52:57.457Z,12.73
2019-02-06T09:55:25.694Z,11.60
2019-02-06T09:57:56.081Z,14.80
2019-02-06T10:00:25.781Z,12.10
2019-02-06T10:02:54.776Z,13.38
2019-02-06T10:05:23.349Z,13.57
2019-02-06T10:07:53.070Z,17.03
2019-02-06T10:10:22.415Z,15.17
2019-02-06T10:12:50.603Z,11.73
2019-02-06T10:15:19.888Z,17.35
2019-02-06T10:17:48.164Z,12.85
2019-02-06T10:20:18.362Z,16.82
2019-02-06T10:22:46.520Z,10.95
2019-02-06T10:25:14.739Z,12.80
2019-02-06T10:27:45.183Z,17.17
2019-02-06T10:30:14.399Z,13.13
2019-02-06T10:32:42.537Z,14.30
2019-02-06T10:35:10.701Z,21.17
2019-02-06T10:37:38.897Z,17.27
2019-02-06T10:40:08.924Z,16.30
2019-02-06T10:42:37.094Z,15.28
2019-02-06T10:48:09.620Z,17.47
2019-02-06T10:50:41.890Z,16.33
2019-02-06T10:53:10.169Z,18.07
2019-02-06T10:55:38.504Z,14.77
2019-02-06T10:58:06.823Z,15.27
2019-02-06T11:00:37.119Z,15.37
2019-02-06T11:03:05.398Z,16.55
2019-02-06T11:05:35.235Z,13.93
2019-02-06T11:08:03.568Z,14.73
2019-02-06T11:10:31.742Z,17.50
2019-02-06T11:12:59.966Z,11.40
2019-02-06T11:15:28.869Z,16.90
2019-02-06T11:17:57.037Z,14.53
2019-02-06T11:20:27.467Z,15.47
2019-02-06T11:22:55.677Z,13.50
2019-02-06T11:25:23.862Z,17.47
2019-02-06T11:27:52.102Z,12.53
2019-02-06T11:30:22.539Z,17.77
2019-02-06T11:32:51.149Z,15.40
2019-02-06T11:35:19.663Z,18.80
2019-02-06T11:37:47.855Z,15.67
2019-02-06T11:40:20.212Z,18.13
2019-02-06T11:42:48.681Z,19.27
2019-02-06T11:45:18.349Z,23.27
2019-02-06T11:47:47.031Z,14.23
2019-02-06T11:50:16.786Z,15.47
2019-02-06T11:53:10.628Z,12.83
2019-02-06T11:55:38.907Z,15.50
2019-02-06T11:58:07.553Z,15.20
2019-02-06T12:00:51.201Z,11.27
2019-02-06T12:03:22.184Z,13.53
2019-02-06T12:05:49.233Z,13.23
2019-02-06T12:08:17.391Z,14.63
2019-02-06T12:10:46.203Z,20.93
2019-02-06T12:13:16.672Z,12.70
2019-02-06T12:15:44.401Z,16.93
2019-02-06T12:18:12.660Z,13.85
2019-02-06T12:20:40.784Z,14.03
2019-02-06T12:23:09.527Z,16.05
2019-02-06T12:25:39.238Z,15.03
2019-02-06T12:28:07.870Z,18.17
2019-02-06T12:30:37.643Z,15.97
2019-02-06T12:33:06.052Z,19.00
2019-02-06T12:35:34.250Z,15.63
2019-02-06T12:38:02.441Z,12.57
2019-02-06T12:40:30.744Z,16.23
2019-02-06T12:42:59.028Z,13.20
2019-02-06T12:45:27.435Z,10.85
2019-02-06T12:47:57.555Z,13.00
2019-02-06T12:50:25.762Z,13.23
2019-02-06T12:52:56.919Z,10.98
2019-02-06T12:55:29.746Z,14.27
2019-02-06T12:57:58.131Z,20.23
2019-02-06T13:00:27.403Z,14.13
2019-02-06T13:02:59.467Z,12.50
2019-02-06T13:05:28.423Z,15.97
2019-02-06T13:07:56.599Z,12.93
2019-02-06T13:10:33.411Z,10.77
2019-02-06T13:12:54.728Z,10.57
2019-02-06T13:15:22.906Z,12.25
2019-02-06T13:17:51.396Z,20.87
2019-02-06T13:20:21.175Z,9.57
2019-02-06T13:22:51.260Z,14.07
2019-02-06T13:25:21.166Z,17.27
2019-02-06T13:27:49.543Z,13.67
2019-02-06T13:30:19.367Z,13.33
2019-02-06T13:32:47.908Z,11.13
2019-02-06T13:35:16.964Z,15.80
2019-02-06T13:38:02.335Z,14.40
2019-02-06T13:40:25.914Z,15.67
2019-02-06T13:42:51.645Z,13.27
2019-02-06T13:45:35.787Z,17.48
2019-02-06T13:48:04.377Z,13.67
2019-02-06T13:50:32.651Z,14.63
2019-02-06T13:53:00.796Z,12.77
2019-02-06T13:55:30.198Z,12.60
2019-02-06T13:57:58.419Z,17.20
2019-02-06T14:00:33.939Z,11.50
2019-02-06T14:03:02.324Z,13.97
2019-02-06T14:05:31.652Z,18.10
2019-02-06T14:08:07.198Z,13.40
2019-02-06T14:10:36.120Z,17.43
2019-02-06T14:13:04.829Z,11.07
2019-02-06T14:15:34.514Z,16.10
2019-02-06T14:18:02.761Z,12.30
2019-02-06T14:20:32.502Z,15.47
2019-02-06T14:23:05.179Z,12.67
2019-02-06T14:25:39.950Z,9.33
2019-02-06T14:28:26.617Z,12.37
2019-02-06T14:31:02.868Z,10.50
2019-02-06T14:33:35.512Z,13.03
2019-02-06T14:36:22.161Z,11.40
2019-02-06T14:38:52.436Z,13.43
2019-02-06T14:41:24.893Z,9.03
2019-02-06T14:43:54.604Z,11.53
2019-02-06T14:49:03.007Z,13.47
2019-02-06T14:51:44.735Z,16.77
2019-02-06T14:54:20.384Z,10.73
2019-02-06T14:56:57.733Z,10.73
2019-02-06T14:59:30.356Z,8.90
2019-02-06T15:02:09.500Z,11.53
2019-02-06T15:04:42.242Z,8.58
2019-02-06T15:07:15.216Z,12.60
2019-02-06T15:09:50.738Z,10.23
2019-02-06T15:12:36.950Z,14.00
2019-02-06T15:15:24.953Z,13.23
2019-02-06T15:17:54.780Z,10.83
2019-02-06T15:20:24.553Z,11.07
2019-02-06T15:22:58.095Z,15.50
2019-02-06T15:25:36.575Z,11.25
2019-02-06T15:28:12.044Z,12.43
2019-02-06T15:36:26.333Z,15.60
2019-02-06T15:39:00.828Z,16.05
2019-02-06T15:41:31.389Z,13.43
2019-02-06T15:44:01.916Z,9.43
2019-02-06T15:46:37.841Z,11.43
2019-02-06T15:49:07.491Z,13.60
2019-02-06T15:51:49.619Z,17.00
2019-02-06T15:54:19.392Z,17.15
2019-02-06T15:56:58.251Z,12.90
2019-02-06T15:59:39.746Z,8.93
2019-02-06T16:05:01.124Z,8.47
2019-02-06T16:07:31.930Z,11.70
2019-02-06T16:10:10.633Z,9.37
2019-02-06T16:12:43.239Z,11.70
2019-02-06T16:15:13.084Z,7.73
2019-02-06T16:17:42.823Z,9.23
2019-02-06T16:20:29.232Z,8.27
2019-02-06T16:23:11.092Z,13.07
2019-02-06T16:25:46.563Z,10.23
2019-02-06T16:28:22.061Z,15.57
2019-02-06T16:31:02.080Z,11.70
2019-02-06T16:33:35.772Z,9.00
2019-02-06T16:36:06.661Z,11.30
2019-02-06T16:38:42.288Z,11.10
2019-02-06T16:41:15.113Z,11.87
2019-02-06T16:44:01.124Z,8.63
2019-02-06T16:46:30.756Z,9.97
2019-02-06T16:49:06.917Z,11.47
2019-02-06T16:51:36.610Z,10.50
2019-02-06T16:54:09.828Z,11.53
2019-02-06T16:56:45.588Z,12.73
2019-02-06T16:59:16.786Z,9.50
2019-02-06T17:02:03.215Z,7.60
2019-02-06T17:04:39.010Z,11.77
2019-02-06T17:07:11.313Z,14.83
2019-02-06T17:09:41.287Z,10.53
2019-02-06T17:12:29.632Z,15.87
2019-02-06T17:15:02.208Z,9.40
2019-02-06T17:17:34.904Z,8.00
2019-02-06T17:20:07.489Z,9.20
2019-02-06T17:22:48.838Z,9.65
2019-02-06T17:25:49.477Z,10.47
2019-02-06T17:28:31.226Z,12.60
2019-02-06T17:31:06.207Z,9.00
2019-02-06T17:33:45.211Z,10.68
2019-02-06T17:36:22.820Z,14.60
2019-02-06T17:39:01.418Z,14.68
2019-02-06T17:41:31.165Z,11.67
2019-02-06T17:44:01.288Z,10.50
2019-02-06T17:46:33.940Z,10.13
2019-02-06T17:49:06.334Z,10.83
2019-02-06T17:51:52.781Z,13.70
2019-02-06T17:54:22.513Z,13.90
2019-02-06T17:56:51.060Z,12.43
2019-02-06T17:59:19.283Z,10.25
2019-02-06T18:01:47.461Z,12.13
2019-02-06T18:04:15.632Z,12.20
2019-02-06T18:06:43.962Z,10.00
2019-02-06T18:09:13.241Z,10.73
2019-02-06T18:11:41.486Z,10.83
2019-02-06T18:14:09.645Z,8.27
2019-02-06T18:16:39.860Z,11.83
2019-02-06T18:19:12.883Z,12.27
2019-02-06T18:21:41.049Z,11.13
2019-02-06T18:24:09.453Z,10.73
2019-02-06T18:26:39.179Z,11.68
2019-02-06T18:29:07.479Z,11.23
2019-02-06T18:31:35.679Z,12.30
2019-02-06T18:34:05.099Z,10.97
2019-02-06T18:36:33.212Z,10.27
2019-02-06T18:39:01.388Z,10.20
2019-02-06T18:41:29.556Z,11.53
2019-02-06T18:43:58.252Z,12.77
2019-02-06T18:46:26.559Z,11.07
2019-02-06T18:48:54.860Z,16.23
2019-02-06T18:51:23.079Z,10.70
2019-02-06T18:53:54.221Z,11.22
2019-02-06T18:56:22.496Z,10.00
2019-02-06T18:58:50.678Z,9.35
2019-02-06T19:01:18.950Z,9.40
2019-02-06T19:03:48.440Z,10.37
2019-02-06T19:06:18.977Z,11.80
2019-02-06T19:08:55.896Z,14.77
2019-02-06T19:11:19.031Z,9.65
2019-02-06T19:13:48.676Z,10.83
2019-02-06T19:16:16.997Z,12.17
2019-02-06T19:18:45.176Z,12.77
2019-02-06T19:21:22.520Z,10.70
2019-02-06T19:26:43.616Z,10.93
2019-02-06T19:29:12.259Z,12.93
2019-02-06T19:31:40.527Z,10.30
2019-02-06T19:34:08.726Z,12.83
2019-02-06T19:36:36.961Z,13.00
2019-02-06T19:39:12.770Z,11.20
2019-02-06T19:42:00.799Z,13.07
2019-02-06T19:44:37.434Z,12.93
2019-02-06T19:47:01.906Z,13.10
2019-02-06T19:49:40.151Z,12.43
2019-02-06T19:52:02.894Z,14.97
2019-02-06T19:54:38.552Z,13.53
2019-02-06T19:58:20.043Z,12.93
2019-02-06T19:59:36.323Z,13.00
2019-02-06T20:02:04.606Z,13.37
2019-02-06T20:04:35.068Z,12.40
2019-02-06T20:07:05.146Z,12.07
2019-02-06T20:10:11.621Z,11.33
2019-02-06T20:15:15.020Z,11.60
2019-02-06T20:17:29.276Z,14.07
2019-02-06T20:19:57.635Z,13.93
2019-02-06T20:25:28.598Z,16.03
2019-02-06T20:28:06.122Z,23.00
2019-02-06T20:33:30.408Z,16.20
2019-02-06T20:35:58.754Z,13.63
2019-02-06T20:38:27.027Z,14.37
2019-02-06T20:40:55.209Z,14.83
2019-02-06T20:43:23.550Z,13.40
2019-02-06T20:45:58.743Z,18.57
2019-02-06T20:48:27.062Z,14.63
2019-02-06T20:50:57.523Z,14.10
2019-02-06T20:53:26.214Z,17.67
2019-02-06T20:55:54.427Z,15.83
2019-02-06T20:58:24.275Z,12.93
2019-02-06T21:00:52.649Z,14.73
2019-02-06T21:03:20.918Z,14.73
2019-02-06T21:05:50.805Z,16.23
2019-02-06T21:08:21.430Z,18.90
2019-02-06T21:10:49.733Z,15.93
2019-02-06T21:13:32.372Z,16.07
2019-02-06T21:15:51.651Z,17.67
2019-02-06T21:18:20.166Z,14.70
2019-02-06T21:20:48.363Z,16.47
2019-02-06T21:23:16.729Z,17.23
2019-02-06T21:25:52.878Z,14.67
2019-02-06T21:28:14.803Z,18.60
2019-02-06T21:30:46.873Z,32.67
2019-02-06T21:33:13.658Z,18.00
2019-02-06T21:35:45.729Z,13.60
2019-02-06T21:38:13.568Z,15.38
2019-02-06T21:40:41.685Z,14.17
2019-02-06T21:43:14.304Z,19.67
2019-02-06T21:45:43.558Z,14.30
2019-02-06T21:51:19.110Z,16.47
2019-02-06T21:53:47.230Z,18.70
2019-02-06T21:56:15.440Z,15.20
2019-02-06T21:58:43.661Z,15.83
2019-02-06T22:01:11.802Z,16.77
2019-02-06T22:03:40.676Z,16.12
2019-02-06T22:06:08.948Z,17.73
2019-02-06T22:08:37.892Z,17.50
2019-02-06T22:11:06.158Z,16.33
2019-02-06T22:13:37.654Z,17.53
2019-02-06T22:16:08.467Z,17.82
2019-02-06T22:18:36.840Z,20.77
2019-02-06T22:21:05.076Z,16.23
2019-02-06T22:23:35.226Z,16.50
2019-02-06T22:26:03.191Z,18.00
2019-02-06T22:28:31.804Z,19.13
2019-02-06T22:31:00.286Z,19.40
2019-02-06T22:33:29.547Z,18.70
2019-02-06T22:36:22.832Z,18.17
2019-02-06T22:38:35.121Z,17.70
2019-02-06T22:41:03.300Z,20.25
2019-02-06T22:43:31.560Z,23.30
2019-02-06T22:46:00.577Z,23.57
2019-02-06T22:48:31.450Z,20.40
2019-02-06T22:50:59.785Z,20.72
2019-02-06T22:53:28.102Z,20.45
2019-02-06T22:55:56.303Z,21.00
2019-02-06T22:58:24.615Z,22.00
2019-02-06T23:00:57.513Z,22.17
2019-02-06T23:03:33.596Z,24.77
2019-02-06T23:06:03.444Z,32.50
2019-02-06T23:08:31.724Z,27.70
2019-02-06T23:11:00.515Z,23.80
2019-02-06T23:13:30.476Z,25.50
2019-02-06T23:15:58.583Z,23.83
2019-02-06T23:18:26.890Z,21.83
2019-02-06T23:20:55.027Z,28.10
2019-02-06T23:23:25.842Z,27.57
2019-02-06T23:25:54.300Z,25.90
2019-02-06T23:29:02.919Z,28.47
2019-02-06T23:31:15.341Z,28.80
2019-02-06T23:33:43.591Z,28.53
2019-02-06T23:36:12.132Z,25.70
2019-02-06T23:38:44.785Z,23.60
2019-02-06T23:41:15.945Z,28.93
2019-02-06T23:43:44.239Z,22.40
2019-02-06T23:46:12.417Z,31.70
2019-02-06T23:48:40.612Z,25.20
2019-02-06T23:51:09.070Z,23.87
2019-02-06T23:53:38.435Z,24.53
2019-02-06T23:56:07.401Z,22.97
2019-02-06T23:58:35.565Z,27.67
